Terminal Aerodrome Forecast
Issued by NWS North Platte, NE

Home | Current Version | Previous Version | Graphics & Text | Print | Product List | Glossary On
Versions: 1 2 3 4 5 6 7 8 9 10 11 12 13 14 15 16
011
FTUS43 KLBF 210520
TAFVTN
TAF
KVTN 210520Z 2106/2206 11006KT P6SM VCSH OVC040
     FM211000 11004KT 6SM -SHRA BKN025 OVC040
     FM211600 12008KT P6SM VCSH OVC025
     FM212100 12012KT P6SM OVC035
     FM220000 14009KT P6SM BKN050=

USA.gov is the U.S. government's official web portal to all federal, state and local government web resources and services.